createdAt,value
2019-04-20T00:00:58.504Z,6.93
2019-04-20T00:03:32.195Z,6.57
2019-04-20T00:05:59.331Z,6.53
2019-04-20T00:08:32.814Z,7.10
2019-04-20T00:11:05.782Z,7.07
2019-04-20T00:13:40.716Z,6.70
2019-04-20T00:16:02.019Z,7.33
2019-04-20T00:18:36.535Z,7.43
2019-04-20T00:21:20.865Z,7.57
2019-04-20T00:23:53.307Z,7.33
2019-04-20T00:27:08.510Z,6.80
2019-04-20T00:29:24.873Z,7.13
2019-04-20T00:31:53.608Z,6.93
2019-04-20T00:34:18.432Z,7.00
2019-04-20T00:36:43.316Z,7.43
2019-04-20T00:39:14.974Z,7.40
2019-04-20T00:41:49.056Z,7.73
2019-04-20T00:44:21.938Z,7.63
2019-04-20T00:46:55.583Z,7.90
2019-04-20T00:49:30.511Z,7.97
2019-04-20T00:52:13.151Z,7.40
2019-04-20T00:54:18.549Z,7.53
2019-04-20T00:56:47.861Z,7.60
2019-04-20T00:59:32.073Z,7.60
2019-04-20T01:02:03.747Z,7.90
2019-04-20T01:04:37.844Z,7.97
2019-04-20T01:07:23.291Z,8.07
2019-04-20T01:09:58.340Z,8.03
2019-04-20T01:12:30.277Z,8.00
2019-04-20T01:15:02.733Z,8.70
2019-04-20T01:17:29.596Z,8.70
2019-04-20T01:19:58.656Z,8.07
2019-04-20T01:22:30.008Z,8.07
2019-04-20T01:25:06.712Z,8.57
2019-04-20T01:27:45.031Z,8.50
2019-04-20T01:30:10.759Z,9.17
2019-04-20T01:32:50.721Z,8.40
2019-04-20T01:35:16.740Z,8.47
2019-04-20T01:37:46.554Z,9.70
2019-04-20T01:40:06.186Z,8.50
2019-04-20T01:42:36.115Z,9.10
2019-04-20T01:45:14.633Z,9.57
2019-04-20T01:47:45.411Z,9.57
2019-04-20T01:50:14.168Z,8.90
2019-04-20T01:52:50.732Z,9.37
2019-04-20T01:55:39.112Z,9.50
2019-04-20T01:58:17.491Z,8.87
2019-04-20T02:00:48.146Z,9.47
2019-04-20T02:03:40.186Z,9.50
2019-04-20T02:06:11.642Z,9.83
2019-04-20T02:08:37.877Z,10.20
2019-04-20T02:11:09.382Z,10.17
2019-04-20T02:13:44.402Z,9.80
2019-04-20T02:16:16.883Z,10.43
2019-04-20T02:19:00.403Z,10.30
2019-04-20T02:21:27.618Z,10.13
2019-04-20T02:23:49.981Z,10.30
2019-04-20T02:26:14.193Z,10.30
2019-04-20T02:29:07.993Z,10.40
2019-04-20T02:31:55.396Z,10.30
2019-04-20T02:37:49.355Z,11.23
2019-04-20T02:45:18.241Z,11.57
2019-04-20T02:47:53.173Z,11.63
2019-04-20T02:50:09.135Z,11.47
2019-04-20T02:55:14.775Z,11.37
2019-04-20T02:57:47.919Z,11.20
2019-04-20T03:00:14.596Z,11.40
2019-04-20T03:02:29.967Z,11.53
2019-04-20T03:04:52.370Z,11.73
2019-04-20T03:07:27.651Z,12.53
2019-04-20T03:10:09.468Z,12.20
2019-04-20T03:12:38.560Z,11.90
2019-04-20T03:15:00.696Z,10.90
2019-04-20T03:17:42.149Z,11.83
2019-04-20T03:20:06.875Z,11.37
2019-04-20T03:23:05.411Z,11.30
2019-04-20T03:25:17.940Z,11.60
2019-04-20T03:27:45.828Z,11.70
2019-04-20T03:33:23.878Z,11.70
2019-04-20T03:35:43.470Z,11.13
2019-04-20T03:38:10.703Z,11.67
2019-04-20T03:40:37.340Z,11.70
2019-04-20T03:42:52.815Z,10.93
2019-04-20T03:45:24.539Z,11.57
2019-04-20T03:48:03.088Z,11.53
2019-04-20T03:50:47.473Z,10.93
2019-04-20T03:53:19.157Z,11.47
2019-04-20T03:56:11.707Z,10.93
2019-04-20T03:58:45.328Z,10.63
2019-04-20T04:01:35.920Z,10.73
2019-04-20T04:04:07.868Z,11.57
2019-04-20T04:06:24.241Z,10.30
2019-04-20T04:08:59.922Z,11.37
2019-04-20T04:11:31.499Z,11.10
2019-04-20T04:13:46.343Z,11.23
2019-04-20T04:16:18.266Z,10.40
2019-04-20T04:18:54.456Z,10.23
2019-04-20T04:21:27.124Z,10.87
2019-04-20T04:24:02.417Z,10.73
2019-04-20T04:26:34.405Z,10.07
2019-04-20T04:29:13.576Z,11.13
2019-04-20T04:31:50.770Z,11.77
2019-04-20T04:34:07.387Z,10.63
2019-04-20T04:36:44.202Z,11.80
2019-04-20T04:39:19.281Z,11.27
2019-04-20T04:41:45.554Z,10.77
2019-04-20T04:44:11.134Z,10.83
2019-04-20T04:46:26.878Z,10.63
2019-04-20T04:49:06.892Z,11.47
2019-04-20T04:51:38.566Z,11.20
2019-04-20T04:54:10.154Z,12.30
2019-04-20T04:56:30.345Z,10.93
2019-04-20T04:59:00.334Z,11.70
2019-04-20T05:01:32.722Z,11.33
2019-04-20T05:04:23.317Z,12.80
2019-04-20T05:06:45.817Z,11.80
2019-04-20T05:09:05.833Z,12.30
2019-04-20T05:11:34.990Z,12.37
2019-04-20T05:14:08.693Z,12.20
2019-04-20T05:16:50.992Z,12.47
2019-04-20T05:19:41.637Z,12.73
2019-04-20T05:22:08.142Z,12.20
2019-04-20T05:24:51.826Z,12.07
2019-04-20T05:27:42.299Z,12.07
2019-04-20T05:29:50.790Z,12.63
2019-04-20T05:32:34.973Z,12.63
2019-04-20T05:35:15.252Z,12.73
2019-04-20T05:37:49.817Z,11.77
2019-04-20T05:40:16.479Z,12.53
2019-04-20T05:43:00.432Z,12.40
2019-04-20T05:45:28.851Z,13.03
2019-04-20T05:48:04.579Z,13.07
2019-04-20T05:50:32.886Z,13.13
2019-04-20T05:53:08.803Z,14.00
2019-04-20T05:55:35.797Z,12.50
2019-04-20T05:58:08.933Z,12.87
2019-04-20T06:00:45.545Z,13.87
2019-04-20T06:03:05.617Z,13.93
2019-04-20T06:05:48.877Z,14.27
2019-04-20T06:08:20.452Z,14.10
2019-04-20T06:10:46.210Z,14.30
2019-04-20T06:13:29.923Z,13.30
2019-04-20T06:16:07.417Z,13.90
2019-04-20T06:18:44.313Z,13.77
2019-04-20T06:21:27.774Z,13.67
2019-04-20T06:24:06.536Z,13.77
2019-04-20T06:26:43.751Z,14.17
2019-04-20T06:28:58.183Z,14.10
2019-04-20T06:31:36.011Z,12.43
2019-04-20T06:47:04.111Z,12.77
2019-04-20T06:52:24.336Z,13.50
2019-04-20T06:55:36.119Z,13.50
2019-04-20T06:57:45.450Z,13.70
2019-04-20T07:00:26.082Z,13.43
2019-04-20T07:05:21.334Z,12.53
2019-04-20T07:12:45.103Z,13.83
2019-04-20T07:15:18.891Z,13.43
2019-04-20T07:17:58.341Z,13.17
2019-04-20T07:20:51.693Z,12.73
2019-04-20T07:23:23.714Z,12.83
2019-04-20T07:25:48.964Z,11.93
2019-04-20T07:28:19.599Z,12.77
2019-04-20T07:30:46.269Z,14.00
2019-04-20T07:33:24.548Z,13.27
2019-04-20T07:35:49.353Z,12.57
2019-04-20T07:40:51.337Z,12.63
2019-04-20T07:43:21.365Z,13.30
2019-04-20T07:45:50.155Z,12.73
2019-04-20T07:48:21.323Z,13.17
2019-04-20T07:50:46.240Z,12.70
2019-04-20T07:53:22.941Z,12.53
2019-04-20T07:55:58.146Z,12.90
2019-04-20T07:58:21.840Z,12.80
2019-04-20T08:01:09.018Z,12.50
2019-04-20T08:03:38.142Z,12.07
2019-04-20T08:06:14.272Z,12.53
2019-04-20T08:08:54.075Z,12.83
2019-04-20T08:11:28.811Z,12.03
2019-04-20T08:14:07.120Z,11.53
2019-04-20T08:16:58.648Z,11.30
2019-04-20T08:19:19.962Z,12.00
2019-04-20T08:21:35.163Z,12.27
2019-04-20T08:24:02.410Z,11.70
2019-04-20T08:26:23.311Z,10.87
2019-04-20T08:28:58.069Z,11.13
2019-04-20T08:32:08.538Z,11.57
2019-04-20T08:34:43.091Z,11.30
2019-04-20T08:37:07.002Z,10.30
2019-04-20T08:42:13.076Z,11.33
2019-04-20T08:45:02.995Z,11.13
2019-04-20T08:47:27.192Z,10.90
2019-04-20T08:50:17.083Z,10.93
2019-04-20T08:53:06.161Z,10.60
2019-04-20T08:55:09.300Z,10.77
2019-04-20T08:57:25.134Z,10.60
2019-04-20T08:59:54.455Z,11.03
2019-04-20T09:02:24.041Z,10.53
2019-04-20T09:05:01.038Z,10.30
2019-04-20T09:07:28.244Z,9.90
2019-04-20T09:10:21.881Z,10.53
2019-04-20T09:12:39.498Z,9.90
2019-04-20T09:14:57.362Z,9.80
2019-04-20T09:17:54.065Z,9.23
2019-04-20T09:20:31.753Z,8.83
2019-04-20T09:23:21.314Z,8.83
2019-04-20T09:28:22.300Z,7.80
2019-04-20T09:30:53.235Z,8.13
2019-04-20T09:34:08.837Z,8.23
2019-04-20T09:36:42.044Z,8.00
2019-04-20T09:39:16.498Z,7.57
2019-04-20T09:42:01.688Z,8.27
2019-04-20T09:44:38.449Z,7.80
2019-04-20T09:47:04.648Z,6.83
2019-04-20T09:49:46.020Z,8.13
2019-04-20T09:52:17.084Z,7.50
2019-04-20T09:54:53.041Z,7.23
2019-04-20T09:57:26.688Z,6.93
2019-04-20T09:59:58.737Z,7.20
2019-04-20T10:02:16.939Z,7.27
2019-04-20T10:04:39.849Z,7.00
2019-04-20T10:07:14.253Z,7.00
2019-04-20T10:09:44.838Z,7.10
2019-04-20T10:12:11.263Z,7.23
2019-04-20T10:14:40.742Z,7.17
2019-04-20T10:17:09.943Z,7.27
2019-04-20T10:19:40.083Z,7.13
2019-04-20T10:22:10.873Z,7.43
2019-04-20T10:24:40.318Z,7.53
2019-04-20T10:27:10.518Z,7.90
2019-04-20T10:29:39.794Z,8.00
2019-04-20T10:32:12.540Z,7.17
2019-04-20T10:34:40.934Z,7.67
2019-04-20T10:37:13.993Z,6.77
2019-04-20T10:39:44.557Z,6.83
2019-04-20T10:42:14.263Z,6.60
2019-04-20T10:44:45.095Z,6.87
2019-04-20T10:47:14.830Z,6.80
2019-04-20T10:49:45.023Z,6.87
2019-04-20T10:52:15.748Z,6.87
2019-04-20T10:54:44.903Z,6.73
2019-04-20T10:57:15.419Z,7.30
2019-04-20T10:59:45.720Z,6.97
2019-04-20T11:02:16.039Z,7.53
2019-04-20T11:04:46.491Z,7.17
2019-04-20T11:07:16.621Z,6.47
2019-04-20T11:09:47.122Z,6.50
2019-04-20T11:12:16.983Z,7.87
2019-04-20T11:14:46.089Z,6.90
2019-04-20T11:17:16.356Z,6.90
2019-04-20T11:19:45.807Z,6.80
2019-04-20T11:22:14.951Z,7.93
2019-04-20T11:24:44.127Z,7.00
2019-04-20T11:27:14.289Z,7.30
2019-04-20T11:29:44.391Z,7.33
2019-04-20T11:32:14.256Z,7.93
2019-04-20T11:34:45.295Z,7.13
2019-04-20T11:37:15.300Z,7.60
2019-04-20T11:39:45.271Z,8.23
2019-04-20T11:42:14.656Z,8.40
2019-04-20T11:44:44.752Z,7.50
2019-04-20T11:47:14.737Z,9.53
2019-04-20T11:49:44.223Z,8.70
2019-04-20T11:52:16.367Z,8.47
2019-04-20T11:54:44.413Z,9.27
2019-04-20T11:57:15.325Z,10.10
2019-04-20T11:59:45.342Z,9.63
2019-04-20T12:02:37.216Z,8.50
2019-04-20T12:05:20.162Z,10.30
2019-04-20T12:07:55.425Z,8.87
2019-04-20T12:10:26.416Z,9.70
2019-04-20T12:12:55.989Z,9.93
2019-04-20T12:15:26.648Z,9.50
2019-04-20T12:17:55.819Z,9.70
2019-04-20T12:20:25.165Z,10.13
2019-04-20T12:22:54.645Z,10.20
2019-04-20T12:25:24.106Z,9.50
2019-04-20T12:27:57.038Z,9.20
2019-04-20T12:30:25.786Z,9.63
2019-04-20T12:33:00.149Z,9.10
2019-04-20T12:35:26.476Z,9.60
2019-04-20T12:37:58.881Z,9.57
2019-04-20T12:40:28.286Z,9.77
2019-04-20T12:42:57.668Z,9.73
2019-04-20T12:45:27.658Z,9.10
2019-04-20T12:47:57.598Z,10.00
2019-04-20T12:50:27.666Z,10.53
2019-04-20T12:52:57.130Z,9.23
2019-04-20T12:55:26.426Z,9.33
2019-04-20T12:57:56.673Z,9.27
2019-04-20T13:00:41.698Z,9.37
2019-04-20T13:03:11.664Z,8.87
2019-04-20T13:05:41.069Z,9.13
2019-04-20T13:08:13.776Z,8.27
2019-04-20T13:10:46.572Z,7.70
2019-04-20T13:13:38.695Z,7.90
2019-04-20T13:16:16.342Z,8.53
2019-04-20T13:19:05.676Z,8.33
2019-04-20T13:21:34.956Z,8.00
2019-04-20T13:24:05.097Z,7.93
2019-04-20T13:26:35.184Z,8.40
2019-04-20T13:29:04.798Z,7.37
2019-04-20T13:31:34.103Z,6.87
2019-04-20T13:34:03.663Z,6.77
2019-04-20T13:36:32.983Z,6.93
2019-04-20T13:39:02.117Z,7.00
2019-04-20T13:41:31.750Z,7.17
2019-04-20T13:44:03.138Z,8.00
2019-04-20T13:46:33.345Z,7.77
2019-04-20T13:49:03.019Z,7.70
2019-04-20T13:51:32.907Z,6.90
2019-04-20T13:54:06.324Z,7.23
2019-04-20T13:56:34.015Z,7.20
2019-04-20T13:59:21.791Z,6.07
2019-04-20T14:02:13.016Z,5.97
2019-04-20T14:04:52.816Z,6.03
2019-04-20T14:07:23.776Z,6.20
2019-04-20T14:09:53.469Z,6.40
2019-04-20T14:12:29.962Z,6.00
2019-04-20T14:14:55.146Z,5.87
2019-04-20T14:17:25.181Z,6.30
2019-04-20T14:19:57.039Z,6.80
2019-04-20T14:22:27.228Z,6.40
2019-04-20T14:24:57.320Z,5.93
2019-04-20T14:27:26.723Z,5.53
2019-04-20T14:30:15.384Z,5.83
2019-04-20T14:32:45.026Z,6.27
2019-04-20T14:35:14.657Z,5.27
2019-04-20T14:37:44.091Z,6.13
2019-04-20T14:40:14.632Z,5.53
2019-04-20T14:42:48.560Z,5.63
2019-04-20T14:45:16.546Z,5.50
2019-04-20T14:47:45.893Z,5.53
2019-04-20T14:50:17.903Z,5.97
2019-04-20T14:52:47.294Z,6.90
2019-04-20T14:55:17.710Z,6.60
2019-04-20T14:57:47.806Z,6.23
2019-04-20T15:00:39.550Z,6.23
2019-04-20T15:03:26.699Z,5.83
2019-04-20T15:05:59.957Z,7.37
2019-04-20T15:08:30.403Z,6.43
2019-04-20T15:11:01.023Z,6.17
2019-04-20T15:13:30.843Z,6.03
2019-04-20T15:16:00.144Z,5.63
2019-04-20T15:18:37.766Z,6.27
2019-04-20T15:21:09.323Z,5.67
2019-04-20T15:23:39.513Z,5.70
2019-04-20T15:26:08.762Z,5.60
2019-04-20T15:28:38.606Z,6.10
2019-04-20T15:31:10.062Z,5.57
2019-04-20T15:33:39.305Z,5.53
2019-04-20T15:36:08.388Z,5.53
2019-04-20T15:38:38.794Z,5.47
2019-04-20T15:41:10.182Z,5.30
2019-04-20T15:43:39.401Z,6.20
2019-04-20T15:46:09.614Z,7.73
2019-04-20T15:48:39.845Z,8.50
2019-04-20T15:51:09.944Z,7.50
2019-04-20T15:53:39.817Z,5.10
2019-04-20T15:56:11.521Z,4.80
2019-04-20T15:58:40.730Z,5.60
2019-04-20T16:01:10.456Z,5.00
2019-04-20T16:03:55.162Z,5.20
2019-04-20T16:06:25.210Z,5.27
2019-04-20T16:08:56.797Z,30.50
2019-04-20T16:11:26.676Z,16.00
2019-04-20T16:13:57.723Z,7.80
2019-04-20T16:16:27.837Z,5.07
2019-04-20T16:18:57.054Z,4.40
2019-04-20T16:21:29.827Z,4.50
2019-04-20T16:24:08.951Z,8.07
2019-04-20T16:26:45.489Z,11.10
2019-04-20T16:29:15.431Z,5.53
2019-04-20T16:31:47.258Z,8.87
2019-04-20T16:34:15.972Z,8.27
2019-04-20T16:36:46.352Z,7.70
2019-04-20T16:39:16.521Z,5.83
2019-04-20T16:41:46.476Z,6.70
2019-04-20T16:44:15.849Z,13.77
2019-04-20T16:46:45.909Z,29.43
2019-04-20T16:49:15.333Z,10.90
2019-04-20T16:51:45.079Z,6.37
2019-04-20T16:54:14.514Z,6.67
2019-04-20T16:56:44.529Z,11.50
2019-04-20T16:59:15.974Z,11.57
2019-04-20T17:01:46.533Z,8.83
2019-04-20T17:04:20.627Z,6.87
2019-04-20T17:07:06.003Z,6.70
2019-04-20T17:09:35.646Z,6.17
2019-04-20T17:12:05.846Z,6.27
2019-04-20T17:14:35.688Z,6.33
2019-04-20T17:17:05.295Z,6.20
2019-04-20T17:19:35.519Z,6.33
2019-04-20T17:22:05.504Z,6.00
2019-04-20T17:24:35.673Z,6.17
2019-04-20T17:27:24.258Z,6.87
2019-04-20T17:30:19.553Z,6.20
2019-04-20T17:32:47.529Z,6.53
2019-04-20T17:35:28.343Z,6.70
2019-04-20T17:37:50.000Z,7.17
2019-04-20T17:40:44.232Z,7.43
2019-04-20T17:43:00.140Z,6.17
2019-04-20T17:45:33.350Z,6.97
2019-04-20T17:48:08.770Z,6.80
2019-04-20T17:50:43.471Z,9.03
2019-04-20T17:53:10.372Z,7.40
2019-04-20T17:55:41.061Z,6.83
2019-04-20T17:58:12.159Z,6.77
2019-04-20T18:00:52.782Z,6.77
2019-04-20T18:03:58.585Z,6.57
2019-04-20T18:06:14.587Z,6.70
2019-04-20T18:08:45.499Z,6.80
2019-04-20T18:11:04.003Z,6.47
2019-04-20T18:13:30.358Z,6.83
2019-04-20T18:16:23.168Z,6.50
2019-04-20T18:18:56.947Z,6.70
2019-04-20T18:21:26.549Z,6.13
2019-04-20T18:23:56.385Z,6.03
2019-04-20T18:26:45.374Z,6.03
2019-04-20T18:29:16.674Z,6.17
2019-04-20T18:31:45.542Z,5.73
2019-04-20T18:34:22.656Z,6.07
2019-04-20T18:36:51.495Z,5.97
2019-04-20T18:39:29.166Z,6.00
2019-04-20T18:41:57.168Z,6.00
2019-04-20T18:44:30.554Z,5.43
2019-04-20T18:47:21.621Z,5.90
2019-04-20T18:49:38.580Z,5.63
2019-04-20T18:51:55.754Z,5.80
2019-04-20T18:54:28.760Z,5.93
2019-04-20T18:56:56.757Z,6.07
2019-04-20T18:59:31.800Z,5.73
2019-04-20T19:01:59.145Z,6.50
2019-04-20T19:04:30.049Z,5.90
2019-04-20T19:07:19.744Z,5.93
2019-04-20T19:09:53.285Z,5.80
2019-04-20T19:12:28.458Z,5.97
2019-04-20T19:15:12.695Z,6.37
2019-04-20T19:18:06.527Z,5.83
2019-04-20T19:20:35.003Z,6.57
2019-04-20T19:23:08.396Z,6.30
2019-04-20T19:25:40.949Z,6.90
2019-04-20T19:28:10.591Z,7.43
2019-04-20T19:30:50.329Z,7.57
2019-04-20T19:33:30.997Z,7.53
2019-04-20T19:35:56.353Z,7.40
2019-04-20T19:38:24.080Z,7.77
2019-04-20T19:40:58.290Z,7.60
2019-04-20T19:43:30.966Z,7.50
2019-04-20T19:46:36.602Z,7.60
2019-04-20T19:48:39.404Z,7.87
2019-04-20T19:51:22.370Z,7.77
2019-04-20T19:53:48.808Z,7.70
2019-04-20T19:56:08.195Z,7.77
2019-04-20T19:58:39.846Z,7.37
2019-04-20T20:01:01.637Z,7.70
2019-04-20T20:03:31.156Z,7.43
2019-04-20T20:06:01.553Z,8.30
2019-04-20T20:08:34.547Z,8.07
2019-04-20T20:11:04.857Z,8.87
2019-04-20T20:13:41.225Z,8.30
2019-04-20T20:16:10.476Z,7.90
2019-04-20T20:18:48.823Z,9.00
2019-04-20T20:21:27.284Z,8.00
2019-04-20T20:23:50.056Z,8.93
2019-04-20T20:26:29.024Z,8.80
2019-04-20T20:29:03.513Z,9.20
2019-04-20T20:31:31.040Z,10.33
2019-04-20T20:34:05.635Z,9.60
2019-04-20T20:36:35.019Z,8.97
2019-04-20T20:39:04.656Z,8.60
2019-04-20T20:41:50.399Z,8.93
2019-04-20T20:44:22.563Z,9.30
2019-04-20T20:46:52.134Z,8.30
2019-04-20T20:49:28.352Z,8.23
2019-04-20T20:52:02.792Z,8.03
2019-04-20T20:54:28.402Z,7.40
2019-04-20T20:56:49.958Z,7.83
2019-04-20T20:59:26.811Z,7.13
2019-04-20T21:01:52.063Z,7.20
2019-04-20T21:04:17.259Z,7.63
2019-04-20T21:06:46.955Z,7.80
2019-04-20T21:09:16.630Z,7.47
2019-04-20T21:11:46.367Z,7.30
2019-04-20T21:14:22.222Z,7.70
2019-04-20T21:16:57.349Z,8.40
2019-04-20T21:19:34.258Z,7.83
2019-04-20T21:21:55.671Z,7.87
2019-04-20T21:24:31.946Z,8.13
2019-04-20T21:27:08.853Z,7.83
2019-04-20T21:29:36.840Z,7.60
2019-04-20T21:32:08.666Z,7.57
2019-04-20T21:34:35.170Z,7.90
2019-04-20T21:37:10.625Z,8.17
2019-04-20T21:39:44.183Z,7.67
2019-04-20T21:42:12.586Z,7.73
2019-04-20T21:44:41.443Z,8.33
2019-04-20T21:47:09.145Z,8.03
2019-04-20T21:49:49.690Z,7.97
2019-04-20T21:52:18.961Z,8.50
2019-04-20T21:54:42.235Z,8.00
2019-04-20T21:57:14.359Z,8.03
2019-04-20T21:59:45.514Z,8.27
2019-04-20T22:02:19.473Z,9.07
2019-04-20T22:04:45.247Z,7.93
2019-04-20T22:07:16.451Z,8.43
2019-04-20T22:09:49.564Z,8.47
2019-04-20T22:12:18.454Z,8.57
2019-04-20T22:14:56.192Z,8.67
2019-04-20T22:17:24.592Z,8.20
2019-04-20T22:20:06.045Z,8.17
2019-04-20T22:22:38.688Z,8.23
2019-04-20T22:25:28.302Z,8.40
2019-04-20T22:27:42.291Z,8.20
2019-04-20T22:30:12.262Z,8.57
2019-04-20T22:32:43.786Z,7.60
2019-04-20T22:35:15.526Z,8.33
2019-04-20T22:37:52.090Z,8.80
2019-04-20T22:40:26.380Z,7.83
2019-04-20T22:42:58.553Z,9.37
2019-04-20T22:45:27.290Z,8.23
2019-04-20T22:48:02.265Z,8.87
2019-04-20T22:50:45.390Z,8.63
2019-04-20T22:53:21.314Z,9.00
2019-04-20T22:55:54.927Z,7.93
2019-04-20T22:58:15.558Z,8.50
2019-04-20T23:00:43.085Z,7.80
2019-04-20T23:03:02.971Z,8.50
2019-04-20T23:05:33.023Z,8.30
2019-04-20T23:08:02.521Z,8.90
2019-04-20T23:10:37.406Z,8.93
2019-04-20T23:13:03.220Z,9.13
2019-04-20T23:15:32.491Z,8.67
2019-04-20T23:18:02.237Z,8.23
2019-04-20T23:20:35.630Z,9.60
2019-04-20T23:23:02.998Z,8.80
2019-04-20T23:25:33.364Z,9.17
2019-04-20T23:28:08.165Z,8.47
2019-04-20T23:30:37.740Z,8.53
2019-04-20T23:33:04.537Z,9.23
2019-04-20T23:35:37.557Z,8.47
2019-04-20T23:38:11.035Z,9.23
2019-04-20T23:40:35.516Z,9.03
2019-04-20T23:43:25.455Z,9.77
2019-04-20T23:46:10.488Z,8.87
2019-04-20T23:48:46.402Z,9.20
2019-04-20T23:51:36.890Z,9.90
2019-04-20T23:53:55.520Z,9.13
2019-04-20T23:56:20.195Z,8.97
2019-04-20T23:58:52.805Z,9.27
